Time;durP1;ratioP1;P1;durP2;ratioP2;P2;SDS_P1;SDS_P2;PMS_P1;PMS_P2;Temp;Humidity;BMP_temperature;BMP_pressure;BME280_temperature;BME280_humidity;BME280_pressure;Samples;Min_cycle;Max_cycle;Signal;HPM_P1;HPM_P2
2023/11/29 00:05:10;;;;;;;;;;;;;;;;;;;;;
2023/11/29 00:08:35;;;;;;;21.90;18.73;;;-0.30;94.10;;;;;;4843726;29;20215;-92
2023/11/29 01:18:51;;;;;;;27.57;22.50;;;0.60;93.50;;;;;;4915868;29;20236;-91
2023/11/29 01:22:01;;;;;;;27.90;21.67;;;0.60;93.50;;;;;;4916119;29;20293;-91
2023/11/29 05:06:35;;;;;;;12.57;10.73;;;1.00;94.40;;;;;;1308876;22;20574;-92
2023/11/29 05:09:05;;;;;;;22.73;17.70;;;1.10;94.30;;;;;;5007707;28;20247;-92
2023/11/29 05:15:04;;;;;;;20.80;16.17;;;1.10;94.30;;;;;;4993225;28;20248;-92
2023/11/29 05:17:38;;;;;;;23.33;17.00;;;1.10;94.20;;;;;;5026012;28;20202;-94
2023/11/29 05:20:18;;;;;;;25.03;20.97;;;1.10;94.20;;;;;;5011282;28;20188;-92
2023/11/29 05:23:32;;;;;;;22.77;14.97;;;1.10;94.20;;;;;;5010019;28;20181;-92
2023/11/29 05:26:03;;;;;;;26.50;20.97;;;1.00;94.30;;;;;;4955859;29;20187;-93
2023/11/29 05:28:31;;;;;;;17.87;14.87;;;1.00;94.40;;;;;;4973275;28;20221;-93
2023/11/29 05:31:34;;;;;;;22.83;16.27;;;0.90;94.50;;;;;;4955090;29;20220;-92
2023/11/29 05:34:36;;;;;;;25.50;20.17;;;0.90;94.60;;;;;;4959029;29;20217;-93
2023/11/29 05:37:46;;;;;;;21.20;17.20;;;0.90;94.70;;;;;;4993337;28;20228;-93
2023/11/29 05:40:26;;;;;;;16.30;13.30;;;0.80;94.70;;;;;;4978671;28;20191;-90
2023/11/29 05:43:17;;;;;;;19.80;17.70;;;0.70;94.90;;;;;;5014983;28;20169;-93
2023/11/29 05:46:28;;;;;;;23.53;20.07;;;0.70;95.00;;;;;;5015443;28;20187;-92
2023/11/29 05:48:58;;;;;;;28.80;23.13;;;0.80;95.10;;;;;;5015072;28;20199;-93
2023/11/29 05:51:35;;;;;;;14.40;12.40;;;0.80;95.10;;;;;;5016394;28;20191;-93
2023/11/29 05:54:05;;;;;;;27.33;20.80;;;0.70;95.10;;;;;;5011645;28;20208;-93
2023/11/29 05:56:33;;;;;;;31.10;24.03;;;0.70;95.20;;;;;;5008794;28;20255;-93
2023/11/29 05:59:12;;;;;;;37.30;28.90;;;0.70;95.20;;;;;;5009516;28;20196;-93
2023/11/29 06:01:40;;;;;;;40.27;31.07;;;0.80;95.30;;;;;;5006813;28;20165;-92
2023/11/29 06:04:16;;;;;;;34.47;26.43;;;0.80;95.20;;;;;;5009375;28;20200;-92
2023/11/29 06:06:42;;;;;;;33.33;24.60;;;0.90;95.10;;;;;;5009184;28;20188;-92
2023/11/29 06:09:08;;;;;;;25.33;20.10;;;0.90;95.10;;;;;;5008973;28;20235;-92
2023/11/29 06:11:37;;;;;;;32.73;24.83;;;0.80;95.00;;;;;;5008669;28;20233;-94
2023/11/29 06:14:04;;;;;;;35.17;27.07;;;0.90;95.00;;;;;;5007395;28;20244;-93
2023/11/29 06:16:29;;;;;;;29.93;21.93;;;0.80;94.90;;;;;;5008439;28;20180;-94
2023/11/29 06:18:55;;;;;;;40.37;27.50;;;0.90;95.00;;;;;;5008015;28;20251;-93
2023/11/29 06:21:35;;;;;;;34.47;27.23;;;0.90;94.90;;;;;;5010396;28;20177;-94
2023/11/29 06:24:09;;;;;;;41.57;31.30;;;0.90;94.90;;;;;;5009552;28;20643;-93
2023/11/29 06:26:41;;;;;;;34.07;24.93;;;0.90;94.90;;;;;;5011172;28;20180;-93
2023/11/29 06:29:09;;;;;;;38.33;27.63;;;0.90;94.90;;;;;;5013419;28;20201;-93
2023/11/29 06:31:41;;;;;;;39.60;28.43;;;0.90;94.90;;;;;;5013782;28;20276;-93
2023/11/29 06:34:33;;;;;;;42.17;32.40;;;0.90;94.90;;;;;;5015808;28;20204;-93
2023/11/29 06:37:12;;;;;;;37.80;28.00;;;0.90;94.90;;;;;;5014816;28;20205;-92
2023/11/29 06:39:53;;;;;;;34.23;23.87;;;0.90;94.90;;;;;;5014697;28;20165;-91
2023/11/29 06:43:04;;;;;;;34.70;24.17;;;0.90;94.90;;;;;;5016512;28;20180;-92
2023/11/29 06:45:19;;;;;;;36.07;28.33;;;0.90;94.80;;;;;;5013313;28;20189;-93
2023/11/29 06:48:18;;;;;;;45.63;34.90;;;0.90;94.90;;;;;;5014682;28;20208;-92
2023/11/29 06:50:45;;;;;;;36.23;25.43;;;0.90;94.90;;;;;;5008241;28;20224;-93
2023/11/29 06:53:16;;;;;;;42.03;26.13;;;0.80;94.90;;;;;;5014883;28;20172;-93
2023/11/29 06:55:55;;;;;;;33.47;22.83;;;0.80;95.00;;;;;;5013628;28;20256;-93
2023/11/29 07:02:04;;;;;;;40.17;28.73;;;0.80;95.10;;;;;;5014222;28;20192;-93
2023/11/29 07:07:54;;;;;;;53.90;33.50;;;0.70;95.30;;;;;;5006424;28;20200;-92
2023/11/29 07:10:30;;;;;;;53.83;35.87;;;0.70;95.40;;;;;;4982751;28;20735;-94
2023/11/29 07:13:02;;;;;;;61.73;39.03;;;0.70;95.40;;;;;;4987373;28;20240;-93
2023/11/29 07:15:43;;;;;;;49.57;30.10;;;0.70;95.50;;;;;;4986923;28;20798;-92
2023/11/29 07:18:15;;;;;;;55.57;35.60;;;0.70;95.50;;;;;;4992048;28;20207;-93
2023/11/29 07:20:48;;;;;;;58.63;35.50;;;0.70;95.50;;;;;;5007793;28;20164;-93
2023/11/29 07:23:34;;;;;;;54.37;36.50;;;0.70;95.50;;;;;;5006630;28;20177;-93
2023/11/29 07:26:21;;;;;;;54.83;35.80;;;0.60;95.60;;;;;;5004652;28;20252;-92
2023/11/29 07:29:16;;;;;;;56.67;37.83;;;0.60;95.60;;;;;;5003829;28;20189;-93
2023/11/29 07:32:01;;;;;;;51.17;32.47;;;0.60;95.70;;;;;;5002974;28;20213;-93
2023/11/29 07:34:44;;;;;;;53.83;36.00;;;0.60;95.70;;;;;;5002382;28;20209;-92
2023/11/29 07:40:38;;;;;;;53.50;35.83;;;0.50;95.80;;;;;;5008612;28;20181;-93
2023/11/29 07:43:22;;;;;;;52.93;36.13;;;0.60;95.90;;;;;;4999358;28;20169;-92
2023/11/29 07:45:56;;;;;;;67.63;40.57;;;0.60;95.90;;;;;;4998539;28;20284;-93
2023/11/29 07:48:44;;;;;;;58.00;35.27;;;0.60;95.90;;;;;;4998143;28;20280;-91
2023/11/29 07:51:22;;;;;;;52.17;32.33;;;0.50;95.90;;;;;;4998477;28;20518;-92
2023/11/29 07:53:58;;;;;;;55.30;34.87;;;0.50;96.00;;;;;;4998259;28;20208;-92
2023/11/29 07:56:37;;;;;;;62.20;38.20;;;0.60;96.00;;;;;;4997462;28;20171;-92
2023/11/29 07:59:09;;;;;;;56.57;33.77;;;0.60;96.00;;;;;;4996666;28;20272;-92
2023/11/29 08:01:35;;;;;;;65.23;38.43;;;0.60;96.00;;;;;;4996066;28;20260;-92
2023/11/29 08:04:04;;;;;;;70.93;44.33;;;0.50;96.00;;;;;;4996212;28;20216;-92
2023/11/29 08:06:33;;;;;;;65.40;42.23;;;0.50;96.00;;;;;;4996762;28;20197;-92
2023/11/29 08:09:00;;;;;;;63.60;39.53;;;0.50;96.10;;;;;;4996559;28;20224;-92
2023/11/29 08:11:35;;;;;;;64.10;36.10;;;0.60;96.00;;;;;;4997056;28;20249;-92
2023/11/29 08:14:12;;;;;;;69.00;40.40;;;0.60;96.10;;;;;;4997363;28;20677;-92
2023/11/29 08:16:38;;;;;;;74.37;42.63;;;0.60;96.10;;;;;;4996438;28;20549;-92
2023/11/29 08:19:13;;;;;;;44.80;29.57;;;0.60;96.00;;;;;;4997262;28;20187;-92
2023/11/29 08:21:54;;;;;;;59.60;35.50;;;0.70;96.10;;;;;;4996038;28;20177;-92
2023/11/29 08:24:25;;;;;;;46.83;29.80;;;0.60;96.00;;;;;;4996232;28;20176;-92
2023/11/29 08:27:07;;;;;;;62.10;40.97;;;0.60;96.10;;;;;;4996026;28;20179;-93
2023/11/29 08:29:43;;;;;;;68.67;44.93;;;0.70;96.10;;;;;;4995454;28;20188;-91
2023/11/29 08:32:40;;;;;;;67.00;43.30;;;0.60;96.00;;;;;;4996341;28;20234;-91
2023/11/29 08:35:28;;;;;;;64.40;38.30;;;0.70;96.10;;;;;;4995881;28;20664;-92
2023/11/29 08:38:01;;;;;;;57.70;37.17;;;0.70;96.00;;;;;;4996137;28;20574;-92
2023/11/29 08:40:54;;;;;;;;;;;;;;;;;;;;;
2023/11/29 08:46:41;;;;;;;61.60;36.47;;;0.70;96.10;;;;;;4979259;28;20297;-92
2023/11/29 08:49:19;;;;;;;63.83;40.30;;;0.60;96.10;;;;;;4997620;28;20271;-92
2023/11/29 08:51:51;;;;;;;71.70;44.33;;;0.60;96.10;;;;;;4997722;28;20154;-92
2023/11/29 09:01:32;;;;;;;;;;;;;;;;;;;;;
2023/11/29 09:08:14;;;;;;;67.50;43.30;;;0.60;96.10;;;;;;4958057;28;20199;-94
2023/11/29 09:11:12;;;;;;;64.63;41.17;;;0.60;96.10;;;;;;4900078;29;20211;-92
2023/11/29 09:13:56;;;;;;;56.37;37.40;;;0.70;96.10;;;;;;4916451;29;20204;-92
2023/11/29 09:16:24;;;;;;;53.43;36.30;;;0.80;96.10;;;;;;4902095;29;20202;-92
2023/11/29 09:19:04;;;;;;;51.97;37.33;;;0.70;96.00;;;;;;4902126;29;20233;-92
2023/11/29 09:21:50;;;;;;;44.60;32.23;;;0.70;96.10;;;;;;4917888;29;20207;-93
2023/11/29 09:24:55;;;;;;;37.33;29.77;;;0.80;96.10;;;;;;4901485;29;20191;-92
2023/11/29 09:27:35;;;;;;;35.70;27.93;;;0.90;96.10;;;;;;4925384;28;20587;-93
2023/11/29 09:30:18;;;;;;;33.97;28.13;;;1.00;96.10;;;;;;4995330;28;20579;-91
2023/11/29 09:33:04;;;;;;;;;;;;;;;;;;;;;
2023/11/29 09:35:36;;;;;;;34.17;30.70;;;1.10;96.10;;;;;;4996223;28;20205;-92
2023/11/29 09:38:11;;;;;;;37.03;33.13;;;1.10;96.10;;;;;;4994527;28;20274;-91
2023/11/29 09:40:45;;;;;;;36.33;32.57;;;1.10;96.10;;;;;;4993777;28;20193;-91
2023/11/29 09:43:18;;;;;;;37.30;33.07;;;1.10;96.10;;;;;;5001643;28;20162;-91
2023/11/29 09:45:43;;;;;;;39.67;35.47;;;0.90;96.00;;;;;;4996686;28;20244;-90
2023/11/29 09:48:43;;;;;;;41.63;37.13;;;1.00;96.00;;;;;;5053220;22;20221;-89
2023/11/29 09:51:11;;;;;;;43.83;38.13;;;0.90;96.00;;;;;;4995407;28;20270;-92
2023/11/29 09:53:37;;;;;;;45.70;38.50;;;0.80;96.00;;;;;;4995160;28;20170;-92
2023/11/29 09:56:03;;;;;;;46.37;39.90;;;0.70;96.00;;;;;;4993620;28;20752;-91
2023/11/29 09:58:46;;;;;;;42.73;37.17;;;0.80;96.00;;;;;;4994785;28;20246;-92
2023/11/29 10:01:18;;;;;;;42.10;35.40;;;0.90;96.10;;;;;;4993427;28;20186;-91
2023/11/29 10:04:02;;;;;;;36.57;32.90;;;0.90;96.00;;;;;;4993846;28;20158;-92
2023/11/29 10:06:32;;;;;;;37.50;33.73;;;1.00;96.00;;;;;;4994109;28;20221;-92
2023/11/29 10:09:13;;;;;;;36.33;32.83;;;1.00;96.00;;;;;;4993288;28;20197;-92
2023/11/29 10:11:40;;;;;;;27.57;23.77;;;1.10;96.00;;;;;;4993236;28;20184;-91
2023/11/29 10:14:05;;;;;;;25.83;23.10;;;1.00;96.00;;;;;;4994640;28;20194;-92
2023/11/29 10:16:34;;;;;;;31.83;28.70;;;1.10;96.00;;;;;;4995133;28;20166;-92
2023/11/29 10:19:12;;;;;;;33.60;30.53;;;1.10;96.00;;;;;;4993759;28;20201;-92
2023/11/29 10:21:42;;;;;;;32.30;29.23;;;1.10;96.00;;;;;;4993310;28;20166;-91
2023/11/29 10:24:07;;;;;;;21.70;18.97;;;1.10;96.00;;;;;;4994796;28;20171;-91
2023/11/29 10:26:40;;;;;;;20.47;18.37;;;1.10;96.00;;;;;;4993511;28;20626;-91
2023/11/29 10:29:08;;;;;;;21.10;18.90;;;1.00;95.90;;;;;;4995179;28;20217;-92
2023/11/29 10:32:41;;;;;;;27.77;25.03;;;1.00;95.90;;;;;;4994384;28;20634;-91
2023/11/29 10:34:36;;;;;;;30.67;27.97;;;0.90;95.90;;;;;;4989682;28;20209;-92
2023/11/29 10:48:08;;;;;;;30.70;27.80;;;0.80;95.70;;;;;;5160301;22;20267;-92
2023/11/29 10:51:12;;;;;;;23.17;19.50;;;0.80;95.60;;;;;;4915705;29;20192;-91
2023/11/29 10:53:49;;;;;;;22.80;19.17;;;0.80;95.60;;;;;;4915403;29;20200;-92
2023/11/29 10:59:25;;;;;;;29.90;27.00;;;0.70;95.50;;;;;;4980775;28;20209;-89
2023/11/29 11:01:58;;;;;;;23.23;18.87;;;0.70;95.50;;;;;;4976394;28;20174;-88
2023/11/29 11:05:02;;;;;;;19.27;17.07;;;0.60;95.40;;;;;;4976354;28;20607;-89
2023/11/29 11:07:41;;;;;;;27.57;24.87;;;0.60;95.30;;;;;;4976279;28;20676;-90
2023/11/29 11:10:12;;;;;;;23.60;20.83;;;0.60;95.20;;;;;;4993601;28;20599;-90
2023/11/29 11:12:40;;;;;;;21.83;19.53;;;0.50;95.10;;;;;;4993771;28;20634;-90
2023/11/29 11:15:19;;;;;;;20.47;18.33;;;0.40;95.00;;;;;;4976068;28;20706;-90
2023/11/29 11:18:06;;;;;;;21.63;18.33;;;0.40;95.00;;;;;;4976418;28;20225;-90
2023/11/29 11:20:50;;;;;;;29.43;26.53;;;0.50;95.00;;;;;;4976890;28;20182;-91
2023/11/29 11:23:20;;;;;;;26.67;24.17;;;0.50;94.90;;;;;;4976386;28;20174;-90
2023/11/29 11:25:45;;;;;;;27.57;24.90;;;0.40;94.70;;;;;;4976824;28;20180;-89
2023/11/29 11:28:35;;;;;;;18.60;16.67;;;0.40;94.70;;;;;;4976321;28;20288;-90
2023/11/29 11:31:13;;;;;;;20.97;17.83;;;0.40;94.60;;;;;;4976978;28;20262;-91
2023/11/29 11:33:51;;;;;;;20.63;18.43;;;0.40;94.70;;;;;;4976141;28;20178;-88
2023/11/29 11:36:24;;;;;;;22.47;17.93;;;0.50;94.60;;;;;;4993646;28;20185;-91
2023/11/29 11:38:50;;;;;;;22.07;16.87;;;0.50;94.70;;;;;;4993923;28;20201;-88
2023/11/29 11:41:15;;;;;;;21.47;16.40;;;0.50;94.60;;;;;;4976233;28;20184;-91
2023/11/29 11:43:42;;;;;;;25.50;17.73;;;0.60;94.60;;;;;;4993236;28;20261;-90
2023/11/29 11:46:07;;;;;;;22.47;18.00;;;0.60;94.60;;;;;;4975782;28;20217;-91
2023/11/29 11:48:33;;;;;;;21.03;18.83;;;0.70;94.60;;;;;;4993281;28;20225;-90
2023/11/29 11:51:00;;;;;;;19.87;17.03;;;0.60;94.50;;;;;;4975917;28;20555;-91
2023/11/29 11:53:25;;;;;;;21.40;16.17;;;0.60;94.50;;;;;;4975967;28;20508;-90
2023/11/29 11:55:52;;;;;;;19.40;17.13;;;0.60;94.50;;;;;;4976311;28;20300;-90
2023/11/29 11:58:19;;;;;;;19.30;17.30;;;0.70;94.50;;;;;;4993213;28;20548;-90
2023/11/29 12:00:47;;;;;;;27.23;24.57;;;0.70;94.50;;;;;;4993557;28;20175;-89
2023/11/29 12:03:50;;;;;;;17.80;16.00;;;0.70;94.50;;;;;;4976021;28;20265;-93
2023/11/29 12:06:16;;;;;;;20.80;15.80;;;0.80;94.50;;;;;;4979386;28;20177;-90
2023/11/29 12:08:43;;;;;;;18.67;15.23;;;0.80;94.50;;;;;;4979479;28;20209;-91
2023/11/29 12:11:10;;;;;;;20.47;16.20;;;0.80;94.50;;;;;;4979358;28;20210;-90
2023/11/29 12:13:36;;;;;;;19.20;15.70;;;0.80;94.50;;;;;;4979106;28;20558;-91
2023/11/29 12:16:12;;;;;;;18.17;16.17;;;0.80;94.50;;;;;;4979520;28;20205;-91
2023/11/29 12:18:39;;;;;;;18.57;15.10;;;0.80;94.40;;;;;;4996757;28;20198;-89
2023/11/29 12:21:05;;;;;;;16.07;14.27;;;0.80;94.40;;;;;;4996878;28;20166;-90
2023/11/29 12:23:31;;;;;;;19.80;15.60;;;0.80;94.40;;;;;;4979224;28;20180;-90
2023/11/29 12:25:57;;;;;;;19.40;15.83;;;0.80;94.40;;;;;;4979509;28;20267;-90
2023/11/29 12:28:28;;;;;;;27.57;25.07;;;0.80;94.30;;;;;;4996206;28;20201;-91
2023/11/29 12:30:58;;;;;;;25.60;23.20;;;0.80;94.30;;;;;;4996719;28;20646;-91
2023/11/29 12:33:24;;;;;;;25.93;23.80;;;0.80;94.30;;;;;;4996720;28;20244;-91
2023/11/29 12:35:50;;;;;;;27.53;24.90;;;0.80;94.30;;;;;;4979785;28;20224;-91
2023/11/29 12:38:16;;;;;;;23.20;20.77;;;0.80;94.20;;;;;;4996203;28;20672;-91
2023/11/29 12:40:41;;;;;;;24.37;22.47;;;0.80;94.10;;;;;;4978773;28;20174;-91
2023/11/29 12:43:07;;;;;;;24.63;22.10;;;0.80;94.10;;;;;;4978798;28;20179;-91
2023/11/29 12:45:33;;;;;;;22.80;20.70;;;0.80;94.00;;;;;;4979563;28;20185;-91
2023/11/29 12:48:03;;;;;;;18.63;15.13;;;0.70;94.00;;;;;;4996074;28;20622;-91
2023/11/29 12:50:28;;;;;;;17.17;15.53;;;0.80;93.90;;;;;;4995910;28;20174;-91
2023/11/29 12:52:54;;;;;;;18.87;16.93;;;0.80;93.80;;;;;;4978383;28;20708;-90
2023/11/29 12:55:20;;;;;;;22.93;20.63;;;0.70;93.80;;;;;;4995990;28;20700;-91
2023/11/29 12:57:46;;;;;;;19.33;17.40;;;0.70;93.70;;;;;;4978686;28;20201;-92
2023/11/29 13:00:12;;;;;;;17.00;15.27;;;0.70;93.70;;;;;;4996035;28;20166;-92
2023/11/29 13:02:38;;;;;;;16.47;14.77;;;0.60;93.60;;;;;;4979229;28;20178;-91
2023/11/29 13:05:04;;;;;;;23.97;21.83;;;0.60;93.50;;;;;;4978587;28;20180;-91
2023/11/29 13:07:30;;;;;;;24.23;22.30;;;0.60;93.40;;;;;;4995788;28;20190;-91
2023/11/29 13:09:55;;;;;;;21.80;20.10;;;0.60;93.30;;;;;;4995621;28;20203;-91
2023/11/29 13:12:21;;;;;;;17.37;15.40;;;0.50;93.20;;;;;;4995997;28;20186;-91
2023/11/29 13:14:46;;;;;;;20.83;15.20;;;0.50;93.10;;;;;;4977787;28;20296;-90
2023/11/29 13:17:12;;;;;;;30.23;22.57;;;0.50;93.10;;;;;;4995980;28;20185;-91
2023/11/29 13:19:39;;;;;;;25.23;22.90;;;0.40;92.90;;;;;;4978185;28;20178;-91
2023/11/29 13:22:05;;;;;;;24.47;21.97;;;0.40;92.70;;;;;;4978003;28;20174;-91
2023/11/29 13:24:30;;;;;;;17.23;15.57;;;0.40;92.70;;;;;;4995463;28;20291;-91
2023/11/29 13:26:56;;;;;;;16.67;15.23;;;0.40;92.60;;;;;;4995189;28;20189;-91
2023/11/29 13:29:22;;;;;;;24.27;22.03;;;0.30;92.50;;;;;;4995489;28;20189;-91
2023/11/29 13:31:49;;;;;;;24.37;22.07;;;0.30;92.40;;;;;;4995826;28;20233;-91
2023/11/29 13:34:14;;;;;;;19.27;17.23;;;0.30;92.40;;;;;;4995527;28;20296;-91
2023/11/29 13:36:40;;;;;;;15.77;14.37;;;0.30;92.20;;;;;;4977898;28;20661;-91
2023/11/29 13:39:06;;;;;;;16.60;14.93;;;0.30;92.20;;;;;;4995107;28;20186;-91
2023/11/29 13:41:31;;;;;;;18.07;16.43;;;0.30;92.10;;;;;;4995901;28;20194;-92
2023/11/29 13:43:58;;;;;;;16.83;15.33;;;0.20;91.90;;;;;;4978192;28;20169;-91
2023/11/29 13:46:55;;;;;;;18.13;16.57;;;0.20;91.90;;;;;;4995158;28;20197;-92
2023/11/29 13:49:21;;;;;;;16.03;14.60;;;0.20;91.90;;;;;;4964480;28;20195;-90
2023/11/29 13:59:28;;;;;;;22.40;17.47;;;0.20;91.70;;;;;;4939998;29;20246;-94
2023/11/29 14:01:57;;;;;;;16.73;15.17;;;0.20;91.50;;;;;;4910308;29;20185;-92
2023/11/29 14:05:22;;;;;;;16.60;15.13;;;0.20;91.40;;;;;;4936019;28;20192;-93
2023/11/29 14:08:47;;;;;;;20.10;18.30;;;0.10;91.20;;;;;;4994425;28;20206;-93
2023/11/29 14:10:55;;;;;;;20.10;18.33;;;0.20;91.10;;;;;;4986862;28;20255;-94
2023/11/29 14:13:28;;;;;;;16.80;15.10;;;0.10;91.00;;;;;;4982076;28;20178;-93
2023/11/29 14:15:56;;;;;;;17.10;15.57;;;0.10;91.00;;;;;;4987612;28;20284;-92
2023/11/29 14:18:25;;;;;;;25.13;23.10;;;0.10;90.90;;;;;;4984972;28;20218;-91
2023/11/29 14:21:06;;;;;;;26.33;24.23;;;0.10;90.70;;;;;;5000134;28;20270;-91
2023/11/29 14:23:51;;;;;;;28.43;26.27;;;0.10;90.60;;;;;;4980587;28;20184;-91
2023/11/29 14:26:43;;;;;;;17.33;15.80;;;0.00;90.30;;;;;;4983824;28;20181;-92
2023/11/29 14:29:18;;;;;;;17.80;16.23;;;0.00;90.10;;;;;;4989604;28;20254;-92
2023/11/29 14:31:44;;;;;;;18.47;16.73;;;0.00;90.00;;;;;;4994403;28;20183;-89
2023/11/29 14:34:10;;;;;;;18.50;16.80;;;0.00;89.90;;;;;;4976652;28;20275;-89
2023/11/29 14:36:38;;;;;;;17.10;15.67;;;0.00;89.90;;;;;;4976754;28;20637;-89
2023/11/29 14:39:04;;;;;;;18.00;16.33;;;0.00;89.70;;;;;;4993910;28;20200;-90
2023/11/29 14:41:30;;;;;;;19.13;17.13;;;0.00;89.50;;;;;;4976755;28;20208;-90
2023/11/29 14:43:56;;;;;;;19.07;17.37;;;0.00;89.50;;;;;;4995141;28;20709;-89
2023/11/29 14:46:22;;;;;;;18.07;16.37;;;0.00;89.40;;;;;;4993894;28;20235;-90
2023/11/29 14:48:47;;;;;;;30.33;28.13;;;0.00;89.10;;;;;;4976640;28;20573;-90
2023/11/29 14:51:13;;;;;;;29.13;26.83;;;0.00;88.90;;;;;;4994128;28;20172;-89
2023/11/29 14:53:38;;;;;;;27.60;25.57;;;0.00;88.80;;;;;;4976447;28;20184;-89
2023/11/29 14:56:04;;;;;;;30.53;28.33;;;0.00;88.70;;;;;;4976751;28;20209;-89
2023/11/29 14:58:30;;;;;;;29.97;27.77;;;0.00;88.30;;;;;;4993712;28;20246;-89
2023/11/29 15:00:57;;;;;;;30.80;28.30;;;0.00;88.10;;;;;;4976433;28;20223;-89
2023/11/29 15:03:22;;;;;;;28.40;26.20;;;0.00;87.90;;;;;;4976514;28;20176;-89
2023/11/29 15:05:48;;;;;;;19.63;17.93;;;-0.10;87.70;;;;;;4976315;28;20192;-89
2023/11/29 15:08:13;;;;;;;20.33;18.63;;;0.00;87.60;;;;;;4976861;28;20205;-89
2023/11/29 15:10:40;;;;;;;28.93;26.83;;;-0.10;87.50;;;;;;4976391;28;20196;-89
2023/11/29 15:13:06;;;;;;;28.67;26.47;;;-0.10;87.70;;;;;;4976192;28;20278;-89
2023/11/29 15:15:31;;;;;;;29.83;27.63;;;-0.10;87.70;;;;;;4976162;28;20237;-89
2023/11/29 15:17:57;;;;;;;19.33;17.90;;;-0.10;87.70;;;;;;4976577;28;20201;-89
2023/11/29 15:20:22;;;;;;;20.23;18.50;;;-0.20;87.40;;;;;;4976291;28;20173;-89
2023/11/29 15:22:48;;;;;;;30.37;28.27;;;-0.30;87.20;;;;;;4976405;28;20538;-89
2023/11/29 15:25:16;;;;;;;29.10;27.00;;;-0.50;86.70;;;;;;4976257;28;20235;-89
2023/11/29 15:27:42;;;;;;;29.30;27.13;;;-0.60;86.90;;;;;;4976133;28;20206;-89
2023/11/29 15:30:09;;;;;;;20.37;18.67;;;-0.60;87.10;;;;;;4976894;28;20188;-89
2023/11/29 15:32:34;;;;;;;21.77;19.97;;;-0.40;87.00;;;;;;4976580;28;20227;-89
2023/11/29 15:35:00;;;;;;;22.43;20.67;;;-0.40;86.90;;;;;;4976148;28;20300;-89
2023/11/29 15:37:25;;;;;;;28.27;25.97;;;-0.40;86.80;;;;;;4976020;28;20232;-89
2023/11/29 15:39:51;;;;;;;31.77;29.17;;;-0.60;86.80;;;;;;4978479;28;20304;-89
2023/11/29 15:42:16;;;;;;;32.83;30.23;;;-0.70;86.80;;;;;;4979754;28;20216;-89
2023/11/29 15:44:45;;;;;;;22.77;20.87;;;-0.70;86.90;;;;;;4997267;28;20176;-89
2023/11/29 15:47:11;;;;;;;21.90;20.00;;;-0.80;86.80;;;;;;4979687;28;20686;-90
2023/11/29 15:49:36;;;;;;;31.50;29.07;;;-0.90;86.60;;;;;;4979902;28;20189;-90
2023/11/29 15:55:24;;;;;;;32.43;29.83;;;-0.90;86.60;;;;;;4997890;28;20213;-90
2023/11/29 15:57:49;;;;;;;22.50;20.67;;;-1.00;86.70;;;;;;4997296;28;20284;-90
2023/11/29 16:00:15;;;;;;;21.63;19.70;;;-1.10;86.60;;;;;;4996864;28;20282;-90
2023/11/29 16:02:41;;;;;;;26.13;24.07;;;-1.10;86.60;;;;;;4979901;28;20218;-89
2023/11/29 16:05:07;;;;;;;25.37;23.30;;;-1.00;86.70;;;;;;4979473;28;20190;-90
2023/11/29 16:07:33;;;;;;;25.47;23.17;;;-1.00;86.50;;;;;;4979225;28;20214;-89
2023/11/29 16:09:58;;;;;;;28.53;26.13;;;-1.00;86.40;;;;;;4996866;28;20189;-90
2023/11/29 16:12:24;;;;;;;20.73;18.93;;;-1.30;85.60;;;;;;4979662;28;20205;-90
2023/11/29 16:14:49;;;;;;;20.80;19.00;;;-1.30;85.90;;;;;;4979145;28;20211;-90
2023/11/29 16:17:15;;;;;;;25.73;23.77;;;-1.30;86.00;;;;;;4980232;28;20179;-90
2023/11/29 16:19:40;;;;;;;25.67;23.70;;;-1.20;86.00;;;;;;4979415;28;20189;-90
2023/11/29 16:22:06;;;;;;;27.33;25.20;;;-1.10;86.10;;;;;;4996589;28;20172;-89
2023/11/29 16:24:37;;;;;;;20.93;19.07;;;-1.20;85.80;;;;;;4981398;28;20225;-92
2023/11/29 16:33:11;;;;;;;27.07;24.87;;;-1.10;85.40;;;;;;4947657;28;20280;-91
2023/11/29 16:35:37;;;;;;;27.03;24.73;;;-1.10;85.40;;;;;;4996431;28;20203;-91
2023/11/29 16:38:03;;;;;;;21.57;19.70;;;-1.10;85.30;;;;;;4986497;28;20320;-90
2023/11/29 16:40:33;;;;;;;20.23;18.30;;;-1.00;85.30;;;;;;4977506;28;20212;-90
2023/11/29 16:43:12;;;;;;;26.00;24.00;;;-0.90;85.10;;;;;;4960275;28;20223;-91
2023/11/29 16:45:50;;;;;;;27.03;24.77;;;-0.90;84.70;;;;;;4977490;28;20182;-90
2023/11/29 16:48:16;;;;;;;27.13;24.83;;;-0.90;84.80;;;;;;4959694;28;20661;-89
2023/11/29 16:50:42;;;;;;;23.10;21.40;;;-0.80;84.50;;;;;;4975927;28;20188;-90
2023/11/29 16:53:07;;;;;;;21.40;19.60;;;-0.80;84.30;;;;;;4959045;28;20185;-90
2023/11/29 16:55:33;;;;;;;22.27;20.17;;;-0.90;84.10;;;;;;4958832;28;20933;-91
2023/11/29 16:58:02;;;;;;;27.27;25.07;;;-0.80;84.50;;;;;;4959306;28;20198;-90
2023/11/29 17:00:28;;;;;;;27.33;25.20;;;-0.90;84.50;;;;;;4976307;28;20645;-90
2023/11/29 17:02:54;;;;;;;28.20;25.80;;;-0.90;84.60;;;;;;4959157;28;20192;-90
2023/11/29 17:05:53;;;;;;;22.60;20.73;;;-0.90;84.90;;;;;;4969671;28;20177;-93
2023/11/29 17:08:34;;;;;;;22.73;20.83;;;-0.80;85.10;;;;;;4978209;28;20197;-90
2023/11/29 17:11:10;;;;;;;29.23;26.67;;;-0.80;85.10;;;;;;4960171;28;20697;-92
2023/11/29 17:13:35;;;;;;;28.70;26.23;;;-0.90;85.20;;;;;;4958949;28;20264;-90
2023/11/29 17:16:01;;;;;;;28.10;25.80;;;-0.90;85.30;;;;;;4958908;28;20294;-90
2023/11/29 17:18:27;;;;;;;21.13;19.27;;;-0.90;85.20;;;;;;4958714;28;20229;-90
2023/11/29 17:20:52;;;;;;;21.40;19.60;;;-1.10;84.90;;;;;;4976021;28;20200;-90
2023/11/29 17:23:18;;;;;;;28.00;25.70;;;-1.30;85.00;;;;;;4959437;28;20224;-90
2023/11/29 17:25:43;;;;;;;27.07;25.00;;;-1.20;85.30;;;;;;4975736;28;20189;-90
2023/11/29 17:28:09;;;;;;;29.63;27.20;;;-1.20;85.00;;;;;;4958484;28;20207;-90
2023/11/29 17:30:34;;;;;;;26.83;24.57;;;-1.20;84.80;;;;;;4975720;28;20191;-90
2023/11/29 17:33:00;;;;;;;21.77;19.73;;;-1.30;84.50;;;;;;4975755;28;20172;-90
2023/11/29 17:35:25;;;;;;;20.73;19.03;;;-1.10;84.80;;;;;;4975990;28;20221;-90
2023/11/29 17:37:51;;;;;;;25.90;23.93;;;-1.10;84.40;;;;;;4958164;28;20197;-89
2023/11/29 17:40:16;;;;;;;26.63;24.53;;;-1.30;84.20;;;;;;4958619;28;20177;-90
2023/11/29 17:42:42;;;;;;;26.57;24.53;;;-1.30;84.30;;;;;;4958151;28;20187;-90
2023/11/29 17:45:09;;;;;;;23.67;21.57;;;-1.30;84.40;;;;;;4957405;28;20420;-90
2023/11/29 17:47:35;;;;;;;22.60;20.60;;;-1.20;84.40;;;;;;4975471;28;20189;-90
2023/11/29 17:50:04;;;;;;;29.63;27.27;;;-1.40;84.00;;;;;;4958146;28;20565;-90
2023/11/29 17:52:30;;;;;;;29.07;26.80;;;-1.30;84.20;;;;;;4958196;28;20190;-90
2023/11/29 17:54:55;;;;;;;29.13;26.97;;;-1.20;84.20;;;;;;4957862;28;20812;-90
2023/11/29 17:57:22;;;;;;;29.27;26.97;;;-1.20;84.10;;;;;;4958447;28;20311;-90
2023/11/29 17:59:47;;;;;;;21.33;19.73;;;-1.20;84.30;;;;;;4975494;28;20247;-90
2023/11/29 18:02:13;;;;;;;22.70;20.37;;;-1.20;84.20;;;;;;4974585;28;20543;-90
2023/11/29 18:04:38;;;;;;;21.03;19.43;;;-1.20;84.20;;;;;;4957746;28;20185;-90
2023/11/29 18:07:04;;;;;;;21.67;19.93;;;-1.10;84.40;;;;;;4975356;28;20185;-90
2023/11/29 18:09:30;;;;;;;23.33;21.50;;;-1.20;84.10;;;;;;4957903;28;20191;-90
2023/11/29 18:11:55;;;;;;;24.40;22.40;;;-1.60;83.30;;;;;;4975127;28;20615;-90
2023/11/29 18:14:21;;;;;;;23.97;22.17;;;-1.90;83.10;;;;;;4957733;28;20683;-89
2023/11/29 18:16:46;;;;;;;22.90;21.20;;;-2.00;83.60;;;;;;4958190;28;20214;-89
2023/11/29 18:19:12;;;;;;;27.27;25.20;;;-1.80;84.00;;;;;;4974980;28;20316;-90
2023/11/29 18:21:37;;;;;;;29.53;27.27;;;-1.60;84.00;;;;;;4957486;28;20244;-89
2023/11/29 18:24:03;;;;;;;29.90;27.70;;;-1.60;83.80;;;;;;4974745;28;20234;-90
2023/11/29 18:26:28;;;;;;;31.07;28.77;;;-1.70;83.30;;;;;;4957503;28;20184;-90
2023/11/29 18:28:57;;;;;;;25.13;23.23;;;-1.60;83.50;;;;;;4957474;28;20344;-89
2023/11/29 18:31:23;;;;;;;23.40;21.63;;;-1.60;83.70;;;;;;4975361;28;20182;-89
2023/11/29 18:33:48;;;;;;;23.03;21.30;;;-1.60;83.30;;;;;;4957388;28;20198;-90
2023/11/29 18:36:14;;;;;;;23.70;21.80;;;-1.60;83.40;;;;;;4974489;28;20205;-89
2023/11/29 18:38:40;;;;;;;28.53;26.33;;;-1.80;83.10;;;;;;4974432;28;20190;-89
2023/11/29 18:41:08;;;;;;;31.23;28.90;;;-1.60;83.40;;;;;;4957538;28;20188;-89
2023/11/29 18:43:33;;;;;;;29.70;27.33;;;-1.50;83.30;;;;;;4957215;28;20186;-90
2023/11/29 18:45:59;;;;;;;23.60;21.70;;;-1.40;83.00;;;;;;4957335;28;20185;-89
2023/11/29 18:48:25;;;;;;;23.67;21.87;;;-1.50;82.60;;;;;;4957278;28;20754;-89
2023/11/29 18:50:51;;;;;;;30.23;27.60;;;-1.50;82.50;;;;;;4974832;28;20178;-90
2023/11/29 18:53:16;;;;;;;30.43;28.00;;;-1.40;82.40;;;;;;4957135;28;20182;-89
2023/11/29 18:55:42;;;;;;;29.07;26.87;;;-1.50;82.30;;;;;;4956849;28;20213;-89
2023/11/29 18:58:09;;;;;;;30.57;28.30;;;-1.50;82.40;;;;;;4956961;28;20233;-89